sensor_id;sensor_type;location;lat;lon;timestamp;pressure;altitude;pressure_sealevel;temperature;humidity
20156;BME280;10238;49.556;10.956;2024-01-15T00:01:24;97127.19;;;-3.57;100.00
20156;BME280;10238;49.556;10.956;2024-01-15T00:04:13;97116.81;;;-3.57;100.00
20156;BME280;10238;49.556;10.956;2024-01-15T00:07:01;97139.25;;;-3.56;100.00
20156;BME280;10238;49.556;10.956;2024-01-15T00:09:50;97127.94;;;-3.55;100.00
20156;BME280;10238;49.556;10.956;2024-01-15T00:12:37;97120.34;;;-3.58;100.00
20156;BME280;10238;49.556;10.956;2024-01-15T00:15:25;97115.97;;;-3.58;100.00
20156;BME280;10238;49.556;10.956;2024-01-15T00:18:14;97114.31;;;-3.59;100.00
20156;BME280;10238;49.556;10.956;2024-01-15T00:21:04;97120.16;;;-3.55;100.00
20156;BME280;10238;49.556;10.956;2024-01-15T00:23:52;97112.78;;;-3.49;100.00
20156;BME280;10238;49.556;10.956;2024-01-15T00:26:40;97106.84;;;-3.51;100.00
20156;BME280;10238;49.556;10.956;2024-01-15T00:29:28;97103.34;;;-3.50;100.00
20156;BME280;10238;49.556;10.956;2024-01-15T00:32:15;97091.25;;;-3.51;100.00
20156;BME280;10238;49.556;10.956;2024-01-15T00:35:04;97079.41;;;-3.55;100.00
20156;BME280;10238;49.556;10.956;2024-01-15T00:37:53;97078.72;;;-3.57;100.00
20156;BME280;10238;49.556;10.956;2024-01-15T00:40:41;97072.78;;;-3.59;100.00
20156;BME280;10238;49.556;10.956;2024-01-15T00:43:29;97066.75;;;-3.59;100.00
20156;BME280;10238;49.556;10.956;2024-01-15T00:46:16;97067.38;;;-3.56;100.00
20156;BME280;10238;49.556;10.956;2024-01-15T00:49:04;97059.50;;;-3.54;100.00
20156;BME280;10238;49.556;10.956;2024-01-15T00:51:52;97067.09;;;-3.51;100.00
20156;BME280;10238;49.556;10.956;2024-01-15T00:54:41;97074.88;;;-3.51;100.00
20156;BME280;10238;49.556;10.956;2024-01-15T00:57:29;97079.88;;;-3.48;100.00
20156;BME280;10238;49.556;10.956;2024-01-15T01:00:17;97087.56;;;-3.47;100.00
20156;BME280;10238;49.556;10.956;2024-01-15T01:03:04;97085.66;;;-3.45;100.00
20156;BME280;10238;49.556;10.956;2024-01-15T01:05:52;97092.56;;;-3.44;100.00
20156;BME280;10238;49.556;10.956;2024-01-15T01:08:40;97089.00;;;-3.43;100.00
20156;BME280;10238;49.556;10.956;2024-01-15T01:11:29;97071.56;;;-3.41;100.00
20156;BME280;10238;49.556;10.956;2024-01-15T01:14:17;97079.47;;;-3.42;100.00
20156;BME280;10238;49.556;10.956;2024-01-15T01:17:05;97081.97;;;-3.41;100.00
20156;BME280;10238;49.556;10.956;2024-01-15T01:19:52;97081.88;;;-3.39;100.00
20156;BME280;10238;49.556;10.956;2024-01-15T01:22:40;97082.56;;;-3.37;100.00
20156;BME280;10238;49.556;10.956;2024-01-15T01:25:28;97077.19;;;-3.34;100.00
20156;BME280;10238;49.556;10.956;2024-01-15T01:28:17;97069.38;;;-3.34;100.00
20156;BME280;10238;49.556;10.956;2024-01-15T01:31:05;97073.63;;;-3.33;100.00
20156;BME280;10238;49.556;10.956;2024-01-15T01:33:53;97079.69;;;-3.33;100.00
20156;BME280;10238;49.556;10.956;2024-01-15T01:36:41;97071.78;;;-3.31;100.00
20156;BME280;10238;49.556;10.956;2024-01-15T01:39:29;97070.03;;;-3.31;100.00
20156;BME280;10238;49.556;10.956;2024-01-15T01:42:19;97067.22;;;-3.28;100.00
20156;BME280;10238;49.556;10.956;2024-01-15T01:45:10;97062.63;;;-3.24;100.00
20156;BME280;10238;49.556;10.956;2024-01-15T01:47:58;97052.25;;;-3.24;100.00
20156;BME280;10238;49.556;10.956;2024-01-15T01:50:46;97061.84;;;-3.25;100.00
20156;BME280;10238;49.556;10.956;2024-01-15T01:53:36;97047.06;;;-3.24;100.00
20156;BME280;10238;49.556;10.956;2024-01-15T01:56:25;97051.25;;;-3.22;100.00
20156;BME280;10238;49.556;10.956;2024-01-15T01:59:13;97052.88;;;-3.21;100.00
20156;BME280;10238;49.556;10.956;2024-01-15T02:02:03;97052.69;;;-3.18;100.00
20156;BME280;10238;49.556;10.956;2024-01-15T02:04:51;97050.00;;;-3.16;100.00
20156;BME280;10238;49.556;10.956;2024-01-15T02:07:39;97056.00;;;-3.16;100.00
20156;BME280;10238;49.556;10.956;2024-01-15T02:10:28;97056.72;;;-3.14;100.00
20156;BME280;10238;49.556;10.956;2024-01-15T02:13:17;97057.56;;;-3.13;100.00
20156;BME280;10238;49.556;10.956;2024-01-15T02:16:05;97052.28;;;-3.12;100.00
20156;BME280;10238;49.556;10.956;2024-01-15T02:18:54;97048.75;;;-3.11;100.00
20156;BME280;10238;49.556;10.956;2024-01-15T02:21:42;97053.72;;;-3.08;100.00
20156;BME280;10238;49.556;10.956;2024-01-15T02:24:31;97051.13;;;-3.08;100.00
20156;BME280;10238;49.556;10.956;2024-01-15T02:27:21;97054.56;;;-3.07;100.00
20156;BME280;10238;49.556;10.956;2024-01-15T02:30:10;97045.72;;;-3.05;100.00
20156;BME280;10238;49.556;10.956;2024-01-15T02:32:58;97057.66;;;-3.02;100.00
20156;BME280;10238;49.556;10.956;2024-01-15T02:35:46;97057.56;;;-3.01;100.00
20156;BME280;10238;49.556;10.956;2024-01-15T02:38:36;97048.81;;;-3.00;100.00
20156;BME280;10238;49.556;10.956;2024-01-15T02:41:25;97049.56;;;-2.98;100.00
20156;BME280;10238;49.556;10.956;2024-01-15T02:44:13;97050.31;;;-2.96;100.00
20156;BME280;10238;49.556;10.956;2024-01-15T02:47:00;97049.34;;;-2.95;100.00
20156;BME280;10238;49.556;10.956;2024-01-15T02:49:48;97051.00;;;-2.94;100.00
20156;BME280;10238;49.556;10.956;2024-01-15T02:52:36;97049.25;;;-2.93;100.00
20156;BME280;10238;49.556;10.956;2024-01-15T02:55:24;97059.44;;;-2.90;100.00
20156;BME280;10238;49.556;10.956;2024-01-15T02:58:12;97056.75;;;-2.89;100.00
20156;BME280;10238;49.556;10.956;2024-01-15T03:01:00;97062.69;;;-2.87;100.00
20156;BME280;10238;49.556;10.956;2024-01-15T03:03:49;97049.56;;;-2.85;100.00
20156;BME280;10238;49.556;10.956;2024-01-15T03:06:36;97054.66;;;-2.84;100.00
20156;BME280;10238;49.556;10.956;2024-01-15T03:09:23;97057.13;;;-2.82;100.00
20156;BME280;10238;49.556;10.956;2024-01-15T03:12:11;97051.03;;;-2.81;100.00
20156;BME280;10238;49.556;10.956;2024-01-15T03:15:00;97041.44;;;-2.81;100.00
20156;BME280;10238;49.556;10.956;2024-01-15T03:17:48;97049.97;;;-2.79;100.00
20156;BME280;10238;49.556;10.956;2024-01-15T03:20:35;97042.16;;;-2.79;100.00
20156;BME280;10238;49.556;10.956;2024-01-15T03:23:23;97039.56;;;-2.79;100.00
20156;BME280;10238;49.556;10.956;2024-01-15T03:26:10;97025.63;;;-2.78;100.00
20156;BME280;10238;49.556;10.956;2024-01-15T03:28:59;97033.31;;;-2.76;100.00
20156;BME280;10238;49.556;10.956;2024-01-15T03:31:48;97019.50;;;-2.77;100.00
20156;BME280;10238;49.556;10.956;2024-01-15T03:34:36;97022.13;;;-2.77;100.00
20156;BME280;10238;49.556;10.956;2024-01-15T03:37:26;97020.44;;;-2.78;100.00
20156;BME280;10238;49.556;10.956;2024-01-15T03:40:14;97016.06;;;-2.77;100.00
20156;BME280;10238;49.556;10.956;2024-01-15T03:43:06;97011.72;;;-2.77;100.00
20156;BME280;10238;49.556;10.956;2024-01-15T03:45:54;97005.47;;;-2.74;100.00
20156;BME280;10238;49.556;10.956;2024-01-15T03:48:43;96998.41;;;-2.72;100.00
20156;BME280;10238;49.556;10.956;2024-01-15T03:51:32;96999.22;;;-2.72;100.00
20156;BME280;10238;49.556;10.956;2024-01-15T03:54:19;96997.34;;;-2.70;100.00
20156;BME280;10238;49.556;10.956;2024-01-15T03:57:07;97008.47;;;-2.68;100.00
20156;BME280;10238;49.556;10.956;2024-01-15T03:59:54;97009.19;;;-2.66;100.00
20156;BME280;10238;49.556;10.956;2024-01-15T04:02:42;97004.72;;;-2.64;100.00
20156;BME280;10238;49.556;10.956;2024-01-15T04:05:31;97010.50;;;-2.60;100.00
20156;BME280;10238;49.556;10.956;2024-01-15T04:08:19;97004.50;;;-2.61;100.00
20156;BME280;10238;49.556;10.956;2024-01-15T04:11:07;97000.84;;;-2.58;100.00
20156;BME280;10238;49.556;10.956;2024-01-15T04:13:54;97008.66;;;-2.58;100.00
20156;BME280;10238;49.556;10.956;2024-01-15T04:16:42;97007.69;;;-2.57;100.00
20156;BME280;10238;49.556;10.956;2024-01-15T04:19:30;97010.19;;;-2.56;100.00
20156;BME280;10238;49.556;10.956;2024-01-15T04:22:19;97004.78;;;-2.53;100.00
20156;BME280;10238;49.556;10.956;2024-01-15T04:25:07;97009.06;;;-2.52;100.00
20156;BME280;10238;49.556;10.956;2024-01-15T04:27:55;97009.78;;;-2.50;100.00
20156;BME280;10238;49.556;10.956;2024-01-15T04:30:42;97000.91;;;-2.47;100.00
20156;BME280;10238;49.556;10.956;2024-01-15T04:33:30;97012.88;;;-2.45;100.00
20156;BME280;10238;49.556;10.956;2024-01-15T04:36:18;97017.13;;;-2.44;100.00
20156;BME280;10238;49.556;10.956;2024-01-15T04:39:07;97013.47;;;-2.41;100.00
20156;BME280;10238;49.556;10.956;2024-01-15T04:41:55;97000.38;;;-2.40;100.00
20156;BME280;10238;49.556;10.956;2024-01-15T04:44:43;97002.97;;;-2.40;100.00
20156;BME280;10238;49.556;10.956;2024-01-15T04:47:30;96997.66;;;-2.38;100.00
20156;BME280;10238;49.556;10.956;2024-01-15T04:50:18;97000.16;;;-2.37;100.00
20156;BME280;10238;49.556;10.956;2024-01-15T04:53:06;96990.59;;;-2.36;100.00
20156;BME280;10238;49.556;10.956;2024-01-15T04:55:58;96985.16;;;-2.33;100.00
20156;BME280;10238;49.556;10.956;2024-01-15T04:58:46;96991.22;;;-2.33;100.00
20156;BME280;10238;49.556;10.956;2024-01-15T05:01:34;96978.19;;;-2.33;100.00
20156;BME280;10238;49.556;10.956;2024-01-15T05:04:22;96977.25;;;-2.32;100.00
20156;BME280;10238;49.556;10.956;2024-01-15T05:07:11;96978.09;;;-2.31;100.00
20156;BME280;10238;49.556;10.956;2024-01-15T05:09:58;96983.16;;;-2.30;100.00
20156;BME280;10238;49.556;10.956;2024-01-15T05:12:48;96989.19;;;-2.29;100.00
20156;BME280;10238;49.556;10.956;2024-01-15T05:15:36;96991.81;;;-2.29;100.00
20156;BME280;10238;49.556;10.956;2024-01-15T05:18:23;96985.66;;;-2.28;100.00
20156;BME280;10238;49.556;10.956;2024-01-15T05:21:11;96978.69;;;-2.28;100.00
20156;BME280;10238;49.556;10.956;2024-01-15T05:23:59;96986.38;;;-2.26;100.00
20156;BME280;10238;49.556;10.956;2024-01-15T05:26:47;96995.94;;;-2.27;100.00
20156;BME280;10238;49.556;10.956;2024-01-15T05:29:35;96988.16;;;-2.27;100.00
20156;BME280;10238;49.556;10.956;2024-01-15T05:32:23;96991.59;;;-2.26;100.00
20156;BME280;10238;49.556;10.956;2024-01-15T05:35:11;96989.81;;;-2.26;100.00
20156;BME280;10238;49.556;10.956;2024-01-15T05:37:59;96988.97;;;-2.26;100.00
20156;BME280;10238;49.556;10.956;2024-01-15T05:40:46;96988.16;;;-2.27;100.00
20156;BME280;10238;49.556;10.956;2024-01-15T05:43:34;96980.13;;;-2.24;100.00
20156;BME280;10238;49.556;10.956;2024-01-15T05:46:23;96976.59;;;-2.22;100.00
20156;BME280;10238;49.556;10.956;2024-01-15T05:49:11;96963.47;;;-2.21;100.00
20156;BME280;10238;49.556;10.956;2024-01-15T05:51:59;96978.03;;;-2.18;100.00
20156;BME280;10238;49.556;10.956;2024-01-15T05:54:46;96974.47;;;-2.17;100.00
20156;BME280;10238;49.556;10.956;2024-01-15T05:57:34;96970.13;;;-2.17;100.00
20156;BME280;10238;49.556;10.956;2024-01-15T06:00:22;96970.97;;;-2.16;100.00
20156;BME280;10238;49.556;10.956;2024-01-15T06:03:11;96966.56;;;-2.16;100.00
20156;BME280;10238;49.556;10.956;2024-01-15T06:05:59;96972.72;;;-2.17;100.00
20156;BME280;10238;49.556;10.956;2024-01-15T06:08:47;96974.47;;;-2.17;100.00
20156;BME280;10238;49.556;10.956;2024-01-15T06:11:34;96978.75;;;-2.16;100.00
20156;BME280;10238;49.556;10.956;2024-01-15T06:14:22;96982.28;;;-2.17;100.00
20156;BME280;10238;49.556;10.956;2024-01-15T06:17:10;96973.66;;;-2.18;100.00
20156;BME280;10238;49.556;10.956;2024-01-15T06:20:00;96978.03;;;-2.18;100.00
20156;BME280;10238;49.556;10.956;2024-01-15T06:22:47;96984.19;;;-2.19;100.00
20156;BME280;10238;49.556;10.956;2024-01-15T06:25:35;96979.91;;;-2.21;100.00
20156;BME280;10238;49.556;10.956;2024-01-15T06:28:23;96976.38;;;-2.19;100.00
20156;BME280;10238;49.556;10.956;2024-01-15T06:31:10;96974.59;;;-2.19;100.00
20156;BME280;10238;49.556;10.956;2024-01-15T06:33:58;96972.81;;;-2.18;100.00
20156;BME280;10238;49.556;10.956;2024-01-15T06:36:47;96975.31;;;-2.17;100.00
20156;BME280;10238;49.556;10.956;2024-01-15T06:39:35;96965.75;;;-2.16;100.00
20156;BME280;10238;49.556;10.956;2024-01-15T06:42:23;96965.75;;;-2.16;100.00
20156;BME280;10238;49.556;10.956;2024-01-15T06:45:11;96966.66;;;-2.17;100.00
20156;BME280;10238;49.556;10.956;2024-01-15T06:47:59;96970.97;;;-2.16;100.00
20156;BME280;10238;49.556;10.956;2024-01-15T06:50:46;96964.81;;;-2.15;100.00
20156;BME280;10238;49.556;10.956;2024-01-15T06:53:36;96974.25;;;-2.14;100.00
20156;BME280;10238;49.556;10.956;2024-01-15T06:56:24;96969.78;;;-2.12;100.00
20156;BME280;10238;49.556;10.956;2024-01-15T06:59:12;96976.53;;;-2.10;100.00
20156;BME280;10238;49.556;10.956;2024-01-15T07:02:05;96976.41;;;-2.08;100.00
20156;BME280;10238;49.556;10.956;2024-01-15T07:04:53;96988.47;;;-2.07;100.00
20156;BME280;10238;49.556;10.956;2024-01-15T07:07:40;96992.75;;;-2.06;100.00
20156;BME280;10238;49.556;10.956;2024-01-15T07:10:30;96984.97;;;-2.06;100.00
20156;BME280;10238;49.556;10.956;2024-01-15T07:13:22;96988.38;;;-2.06;100.00
20156;BME280;10238;49.556;10.956;2024-01-15T07:16:09;96996.91;;;-2.04;100.00
20156;BME280;10238;49.556;10.956;2024-01-15T07:18:57;96993.34;;;-2.03;100.00
20156;BME280;10238;49.556;10.956;2024-01-15T07:21:45;96995.84;;;-2.01;100.00
20156;BME280;10238;49.556;10.956;2024-01-15T07:24:33;96993.97;;;-1.99;100.00
20156;BME280;10238;49.556;10.956;2024-01-15T07:27:23;96990.41;;;-1.98;100.00
20156;BME280;10238;49.556;10.956;2024-01-15T07:30:11;96992.09;;;-1.97;100.00
20156;BME280;10238;49.556;10.956;2024-01-15T07:32:59;96998.97;;;-1.96;100.00
20156;BME280;10238;49.556;10.956;2024-01-15T07:35:47;96992.81;;;-1.95;100.00
20156;BME280;10238;49.556;10.956;2024-01-15T07:38:35;96993.53;;;-1.93;100.00
20156;BME280;10238;49.556;10.956;2024-01-15T07:41:23;96996.84;;;-1.91;100.00
20156;BME280;10238;49.556;10.956;2024-01-15T07:44:12;97001.00;;;-1.89;100.00
20156;BME280;10238;49.556;10.956;2024-01-15T07:46:59;96993.91;;;-1.87;100.00
20156;BME280;10238;49.556;10.956;2024-01-15T07:49:47;97007.75;;;-1.86;100.00
20156;BME280;10238;49.556;10.956;2024-01-15T07:52:35;97017.22;;;-1.85;100.00
20156;BME280;10238;49.556;10.956;2024-01-15T07:55:22;97017.94;;;-1.83;100.00
20156;BME280;10238;49.556;10.956;2024-01-15T07:58:10;97018.69;;;-1.81;100.00
20156;BME280;10238;49.556;10.956;2024-01-15T08:01:03;97010.75;;;-1.80;100.00
20156;BME280;10238;49.556;10.956;2024-01-15T08:03:53;97014.91;;;-1.77;100.00
20156;BME280;10238;49.556;10.956;2024-01-15T08:06:43;97012.19;;;-1.76;100.00
20156;BME280;10238;49.556;10.956;2024-01-15T08:09:31;97016.34;;;-1.73;100.00
20156;BME280;10238;49.556;10.956;2024-01-15T08:12:19;97011.84;;;-1.71;100.00
20156;BME280;10238;49.556;10.956;2024-01-15T08:15:07;97018.50;;;-1.67;100.00
20156;BME280;10238;49.556;10.956;2024-01-15T08:17:56;97008.81;;;-1.65;100.00
20156;BME280;10238;49.556;10.956;2024-01-15T08:20:44;97010.34;;;-1.63;100.00
20156;BME280;10238;49.556;10.956;2024-01-15T08:23:32;97016.97;;;-1.59;100.00
20156;BME280;10238;49.556;10.956;2024-01-15T08:26:21;97010.47;;;-1.53;100.00
20156;BME280;10238;49.556;10.956;2024-01-15T08:29:09;97009.31;;;-1.49;100.00
20156;BME280;10238;49.556;10.956;2024-01-15T08:31:57;97004.81;;;-1.47;100.00
20156;BME280;10238;49.556;10.956;2024-01-15T08:34:46;96993.25;;;-1.43;100.00
20156;BME280;10238;49.556;10.956;2024-01-15T08:37:38;96990.53;;;-1.42;100.00
20156;BME280;10238;49.556;10.956;2024-01-15T08:40:26;96990.16;;;-1.37;100.00
20156;BME280;10238;49.556;10.956;2024-01-15T08:43:14;96989.00;;;-1.33;100.00
20156;BME280;10238;49.556;10.956;2024-01-15T08:46:02;96993.84;;;-1.29;100.00
20156;BME280;10238;49.556;10.956;2024-01-15T08:48:50;96999.75;;;-1.27;100.00
20156;BME280;10238;49.556;10.956;2024-01-15T08:51:40;96991.84;;;-1.25;100.00
20156;BME280;10238;49.556;10.956;2024-01-15T08:54:28;96997.78;;;-1.23;100.00
20156;BME280;10238;49.556;10.956;2024-01-15T08:57:15;96995.84;;;-1.21;100.00
20156;BME280;10238;49.556;10.956;2024-01-15T09:00:04;96992.31;;;-1.20;100.00
20156;BME280;10238;49.556;10.956;2024-01-15T09:02:55;96995.63;;;-1.18;100.00
20156;BME280;10238;49.556;10.956;2024-01-15T09:05:43;96988.41;;;-1.15;100.00
20156;BME280;10238;49.556;10.956;2024-01-15T09:08:32;96990.91;;;-1.13;100.00
20156;BME280;10238;49.556;10.956;2024-01-15T09:11:19;96990.69;;;-1.10;100.00
20156;BME280;10238;49.556;10.956;2024-01-15T09:14:07;96990.22;;;-1.04;100.00
20156;BME280;10238;49.556;10.956;2024-01-15T09:16:55;96982.28;;;-1.03;100.00
20156;BME280;10238;49.556;10.956;2024-01-15T09:19:43;96980.00;;;-0.96;100.00
20156;BME280;10238;49.556;10.956;2024-01-15T09:22:32;96979.56;;;-0.79;100.00
20156;BME280;10238;49.556;10.956;2024-01-15T09:25:21;96985.47;;;-0.66;100.00
20156;BME280;10238;49.556;10.956;2024-01-15T09:28:09;96981.19;;;-0.56;100.00
20156;BME280;10238;49.556;10.956;2024-01-15T09:30:56;96986.25;;;-0.44;100.00
20156;BME280;10238;49.556;10.956;2024-01-15T09:33:44;96972.63;;;-0.36;100.00
20156;BME280;10238;49.556;10.956;2024-01-15T09:36:32;96984.34;;;-0.20;100.00
20156;BME280;10238;49.556;10.956;2024-01-15T09:39:19;96981.59;;;-0.18;100.00
20156;BME280;10238;49.556;10.956;2024-01-15T09:42:10;96989.06;;;-0.14;100.00
20156;BME280;10238;49.556;10.956;2024-01-15T09:44:58;96997.47;;;-0.10;100.00
20156;BME280;10238;49.556;10.956;2024-01-15T09:47:46;96997.34;;;-0.09;100.00
20156;BME280;10238;49.556;10.956;2024-01-15T09:50:34;97001.75;;;-0.09;100.00
20156;BME280;10238;49.556;10.956;2024-01-15T09:53:25;97006.97;;;-0.09;100.00
20156;BME280;10238;49.556;10.956;2024-01-15T09:56:13;96998.53;;;-0.02;100.00
20156;BME280;10238;49.556;10.956;2024-01-15T09:59:04;97006.81;;;0.03;100.00
20156;BME280;10238;49.556;10.956;2024-01-15T10:01:53;97001.59;;;0.03;100.00
20156;BME280;10238;49.556;10.956;2024-01-15T10:04:43;96999.69;;;0.06;100.00
20156;BME280;10238;49.556;10.956;2024-01-15T10:07:35;96996.72;;;0.10;100.00
20156;BME280;10238;49.556;10.956;2024-01-15T10:10:24;97000.00;;;0.12;100.00
20156;BME280;10238;49.556;10.956;2024-01-15T10:13:12;96995.03;;;0.09;100.00
20156;BME280;10238;49.556;10.956;2024-01-15T10:16:03;96986.50;;;0.07;100.00
20156;BME280;10238;49.556;10.956;2024-01-15T10:18:51;96982.81;;;0.10;100.00
20156;BME280;10238;49.556;10.956;2024-01-15T10:21:40;96977.22;;;0.14;100.00
20156;BME280;10238;49.556;10.956;2024-01-15T10:24:28;96968.88;;;0.20;100.00
20156;BME280;10238;49.556;10.956;2024-01-15T10:27:16;96970.16;;;0.26;100.00
20156;BME280;10238;49.556;10.956;2024-01-15T10:30:05;96963.59;;;0.31;100.00
20156;BME280;10238;49.556;10.956;2024-01-15T10:32:59;96959.81;;;0.35;100.00
20156;BME280;10238;49.556;10.956;2024-01-15T10:35:47;96944.69;;;0.39;100.00
20156;BME280;10238;49.556;10.956;2024-01-15T10:38:36;96944.81;;;0.37;100.00
20156;BME280;10238;49.556;10.956;2024-01-15T10:41:24;96934.69;;;0.23;100.00
20156;BME280;10238;49.556;10.956;2024-01-15T10:44:11;96938.22;;;0.22;100.00
20156;BME280;10238;49.556;10.956;2024-01-15T10:47:00;96936.69;;;0.20;100.00
20156;BME280;10238;49.556;10.956;2024-01-15T10:49:50;96933.25;;;0.19;100.00
20156;BME280;10238;49.556;10.956;2024-01-15T10:52:40;96936.31;;;0.24;100.00
20156;BME280;10238;49.556;10.956;2024-01-15T10:55:30;96939.31;;;0.20;100.00
20156;BME280;10238;49.556;10.956;2024-01-15T10:58:20;96932.44;;;0.19;100.00
20156;BME280;10238;49.556;10.956;2024-01-15T11:01:09;96924.34;;;0.22;100.00
20156;BME280;10238;49.556;10.956;2024-01-15T11:03:58;96926.13;;;0.21;100.00
20156;BME280;10238;49.556;10.956;2024-01-15T11:06:52;96920.19;;;0.19;100.00
20156;BME280;10238;49.556;10.956;2024-01-15T11:09:41;96914.97;;;0.19;100.00
20156;BME280;10238;49.556;10.956;2024-01-15T11:12:31;96916.28;;;0.25;100.00
20156;BME280;10238;49.556;10.956;2024-01-15T11:15:19;96911.69;;;0.38;100.00
20156;BME280;10238;49.556;10.956;2024-01-15T11:18:09;96900.63;;;0.55;100.00
20156;BME280;10238;49.556;10.956;2024-01-15T11:21:25;96908.28;;;0.67;100.00
20156;BME280;10238;49.556;10.956;2024-01-15T11:24:39;96904.84;;;0.67;100.00
20156;BME280;10238;49.556;10.956;2024-01-15T11:27:41;96898.88;;;0.65;100.00
20156;BME280;10238;49.556;10.956;2024-01-15T11:30:29;96900.31;;;0.69;100.00
20156;BME280;10238;49.556;10.956;2024-01-15T11:33:32;96899.22;;;0.71;100.00
20156;BME280;10238;49.556;10.956;2024-01-15T11:36:21;96898.25;;;0.72;100.00
20156;BME280;10238;49.556;10.956;2024-01-15T11:40:03;96900.03;;;0.72;100.00
20156;BME280;10238;49.556;10.956;2024-01-15T11:42:51;96894.75;;;0.62;100.00
20156;BME280;10238;49.556;10.956;2024-01-15T11:45:39;96895.88;;;0.69;100.00
20156;BME280;10238;49.556;10.956;2024-01-15T11:48:58;96899.91;;;0.73;100.00
20156;BME280;10238;49.556;10.956;2024-01-15T11:52:22;96897.28;;;0.73;100.00
20156;BME280;10238;49.556;10.956;2024-01-15T11:55:34;96900.03;;;0.72;100.00
20156;BME280;10238;49.556;10.956;2024-01-15T11:58:24;96896.47;;;0.73;100.00
20156;BME280;10238;49.556;10.956;2024-01-15T12:01:25;96895.38;;;0.75;100.00
20156;BME280;10238;49.556;10.956;2024-01-15T12:04:21;96898.69;;;0.77;100.00
20156;BME280;10238;49.556;10.956;2024-01-15T12:07:17;96895.13;;;0.78;100.00
20156;BME280;10238;49.556;10.956;2024-01-15T12:10:09;96889.31;;;0.75;100.00
20156;BME280;10238;49.556;10.956;2024-01-15T12:13:16;96896.16;;;0.66;100.00
20156;BME280;10238;49.556;10.956;2024-01-15T12:16:11;96887.13;;;0.70;100.00
20156;BME280;10238;49.556;10.956;2024-01-15T12:18:59;96887.41;;;0.77;100.00
20156;BME280;10238;49.556;10.956;2024-01-15T12:22:01;96893.47;;;0.77;100.00
20156;BME280;10238;49.556;10.956;2024-01-15T12:30:07;96886.66;;;0.95;100.00
20156;BME280;10238;49.556;10.956;2024-01-15T12:33:17;96883.75;;;0.89;100.00
20156;BME280;10238;49.556;10.956;2024-01-15T12:36:21;96889.38;;;0.84;100.00
20156;BME280;10238;49.556;10.956;2024-01-15T12:39:11;96882.22;;;0.86;100.00
20156;BME280;10238;49.556;10.956;2024-01-15T12:41:59;96881.53;;;0.84;100.00
20156;BME280;10238;49.556;10.956;2024-01-15T12:44:47;96885.91;;;0.84;100.00
20156;BME280;10238;49.556;10.956;2024-01-15T12:47:36;96885.38;;;0.80;100.00
20156;BME280;10238;49.556;10.956;2024-01-15T12:50:25;96879.16;;;0.81;100.00
20156;BME280;10238;49.556;10.956;2024-01-15T12:53:12;96872.97;;;0.82;100.00
20156;BME280;10238;49.556;10.956;2024-01-15T12:56:00;96870.09;;;0.85;100.00
20156;BME280;10238;49.556;10.956;2024-01-15T12:58:47;96869.97;;;0.87;100.00
20156;BME280;10238;49.556;10.956;2024-01-15T13:01:35;96876.03;;;0.87;100.00
20156;BME280;10238;49.556;10.956;2024-01-15T13:04:25;96877.81;;;0.87;100.00
20156;BME280;10238;49.556;10.956;2024-01-15T13:07:13;96874.78;;;0.82;100.00
20156;BME280;10238;49.556;10.956;2024-01-15T13:10:00;96883.00;;;0.77;100.00
20156;BME280;10238;49.556;10.956;2024-01-15T13:12:49;96891.25;;;0.73;100.00
20156;BME280;10238;49.556;10.956;2024-01-15T13:15:37;96882.69;;;0.71;100.00
20156;BME280;10238;49.556;10.956;2024-01-15T13:18:24;96888.19;;;0.68;100.00
20156;BME280;10238;49.556;10.956;2024-01-15T13:21:13;96884.03;;;0.65;100.00
20156;BME280;10238;49.556;10.956;2024-01-15T13:24:01;96891.69;;;0.57;100.00
20156;BME280;10238;49.556;10.956;2024-01-15T13:26:51;96890.00;;;0.47;100.00
20156;BME280;10238;49.556;10.956;2024-01-15T13:29:39;96890.56;;;0.50;100.00
20156;BME280;10238;49.556;10.956;2024-01-15T13:32:28;96880.09;;;0.50;100.00
20156;BME280;10238;49.556;10.956;2024-01-15T13:35:16;96881.91;;;0.50;100.00
20156;BME280;10238;49.556;10.956;2024-01-15T13:38:05;96874.19;;;0.48;100.00
20156;BME280;10238;49.556;10.956;2024-01-15T13:40:55;96873.50;;;0.46;100.00
20156;BME280;10238;49.556;10.956;2024-01-15T13:43:42;96872.66;;;0.46;100.00
20156;BME280;10238;49.556;10.956;2024-01-15T13:46:30;96877.31;;;0.42;100.00
20156;BME280;10238;49.556;10.956;2024-01-15T13:49:17;96877.84;;;0.36;100.00
20156;BME280;10238;49.556;10.956;2024-01-15T13:52:05;96877.13;;;0.34;100.00
20156;BME280;10238;49.556;10.956;2024-01-15T13:54:54;96883.31;;;0.33;100.00
20156;BME280;10238;49.556;10.956;2024-01-15T13:57:42;96878.34;;;0.30;100.00
20156;BME280;10238;49.556;10.956;2024-01-15T14:00:30;96880.97;;;0.30;100.00
20156;BME280;10238;49.556;10.956;2024-01-15T14:03:18;96889.31;;;0.24;100.00
20156;BME280;10238;49.556;10.956;2024-01-15T14:06:06;96876.25;;;0.24;100.00
20156;BME280;10238;49.556;10.956;2024-01-15T14:08:57;96871.97;;;0.23;100.00
20156;BME280;10238;49.556;10.956;2024-01-15T14:11:46;96867.31;;;0.27;100.00
20156;BME280;10238;49.556;10.956;2024-01-15T14:14:33;96856.59;;;0.30;100.00
20156;BME280;10238;49.556;10.956;2024-01-15T14:17:21;96866.00;;;0.32;100.00
20156;BME280;10238;49.556;10.956;2024-01-15T14:20:10;96876.44;;;0.32;100.00
20156;BME280;10238;49.556;10.956;2024-01-15T14:22:58;96886.91;;;0.32;100.00
20156;BME280;10238;49.556;10.956;2024-01-15T14:25:46;96879.75;;;0.34;100.00
20156;BME280;10238;49.556;10.956;2024-01-15T14:28:35;96881.13;;;0.38;100.00
20156;BME280;10238;49.556;10.956;2024-01-15T14:31:22;96884.72;;;0.37;100.00
20156;BME280;10238;49.556;10.956;2024-01-15T14:34:12;96884.97;;;0.34;100.00
20156;BME280;10238;49.556;10.956;2024-01-15T14:37:01;96886.91;;;0.32;100.00
20156;BME280;10238;49.556;10.956;2024-01-15T14:39:48;96900.91;;;0.31;100.00
20156;BME280;10238;49.556;10.956;2024-01-15T14:42:36;96893.44;;;0.27;100.00